createdAt,value
2018-12-05T00:04:11.924Z,17.67
2018-12-05T00:06:39.359Z,14.23
2018-12-05T00:09:10.047Z,17.80
2018-12-05T00:11:38.459Z,14.80
2018-12-05T00:14:11.013Z,10.50
2018-12-05T00:16:38.437Z,14.57
2018-12-05T00:19:08.751Z,12.83
2018-12-05T00:21:36.197Z,13.53
2018-12-05T00:24:03.808Z,14.97
2018-12-05T00:26:32.245Z,18.40
2018-12-05T00:28:59.650Z,18.77
2018-12-05T00:31:27.098Z,17.13
2018-12-05T00:34:02.421Z,13.87
2018-12-05T00:36:29.855Z,16.67
2018-12-05T00:39:01.334Z,19.87
2018-12-05T00:41:28.763Z,13.43
2018-12-05T00:43:59.119Z,17.57
2018-12-05T00:46:26.763Z,16.10
2018-12-05T00:48:54.192Z,13.57
2018-12-05T00:51:21.789Z,20.20
2018-12-05T00:53:49.211Z,13.23
2018-12-05T00:56:16.630Z,13.47
2018-12-05T00:58:44.154Z,19.23
2018-12-05T01:01:11.617Z,16.37
2018-12-05T01:03:39.049Z,15.23
2018-12-05T01:06:06.463Z,18.27
2018-12-05T01:08:34.089Z,14.63
2018-12-05T01:11:01.536Z,18.10
2018-12-05T01:13:29.028Z,16.90
2018-12-05T01:15:56.463Z,18.17
2018-12-05T01:18:39.808Z,16.27
2018-12-05T01:21:07.259Z,16.47
2018-12-05T01:23:34.872Z,16.97
2018-12-05T01:26:02.381Z,16.13
2018-12-05T01:28:29.816Z,15.27
2018-12-05T01:30:57.304Z,16.10
2018-12-05T01:33:24.802Z,14.63
2018-12-05T01:35:52.218Z,13.20
2018-12-05T01:38:19.639Z,19.67
2018-12-05T01:40:53.663Z,16.20
2018-12-05T01:46:09.106Z,14.80
2018-12-05T01:48:41.322Z,13.20
2018-12-05T01:51:08.765Z,13.73
2018-12-05T01:53:36.174Z,14.27
2018-12-05T01:56:03.701Z,15.50
2018-12-05T01:58:31.275Z,10.67
2018-12-05T02:00:59.562Z,13.90
2018-12-05T02:03:27.127Z,15.53
2018-12-05T02:05:54.762Z,13.50
2018-12-05T02:08:27.079Z,11.97
2018-12-05T02:10:59.444Z,14.83
2018-12-05T02:13:33.297Z,12.43
2018-12-05T02:16:00.709Z,13.50
2018-12-05T02:18:28.336Z,13.80
2018-12-05T02:20:55.867Z,15.63
2018-12-05T02:23:23.315Z,12.43
2018-12-05T02:25:50.755Z,11.43
2018-12-05T02:28:18.196Z,12.80
2018-12-05T02:31:05.313Z,18.07
2018-12-05T02:33:32.843Z,11.90
2018-12-05T02:36:00.330Z,11.90
2018-12-05T02:38:27.755Z,14.03
2018-12-05T02:40:58.133Z,11.67
2018-12-05T02:43:29.535Z,13.53
2018-12-05T02:46:01.775Z,12.87
2018-12-05T02:48:29.220Z,11.80
2018-12-05T02:50:56.679Z,18.33
2018-12-05T02:53:24.103Z,15.77
2018-12-05T02:55:52.079Z,12.50
2018-12-05T02:58:19.517Z,13.30
2018-12-05T03:00:47.002Z,13.87
2018-12-05T03:03:14.439Z,12.13
2018-12-05T03:05:42.169Z,12.63
2018-12-05T03:08:09.583Z,12.20
2018-12-05T03:10:37.026Z,13.77
2018-12-05T03:15:58.588Z,14.63
2018-12-05T03:18:26.011Z,12.40
2018-12-05T03:20:53.445Z,16.97
2018-12-05T03:23:24.875Z,16.30
2018-12-05T03:25:58.008Z,15.63
2018-12-05T03:28:25.439Z,14.40
2018-12-05T03:30:55.734Z,12.03
2018-12-05T03:33:38.695Z,13.53
2018-12-05T03:36:06.144Z,11.80
2018-12-05T03:38:34.509Z,12.70
2018-12-05T03:41:01.952Z,16.70
2018-12-05T03:43:34.483Z,15.10
2018-12-05T03:46:02.031Z,14.17
2018-12-05T03:48:29.447Z,17.43
2018-12-05T03:50:56.879Z,28.43
2018-12-05T03:53:24.321Z,23.67
2018-12-05T03:55:51.807Z,23.77
2018-12-05T03:58:20.202Z,20.53
2018-12-05T04:00:47.719Z,20.83
2018-12-05T04:03:15.178Z,19.37
2018-12-05T04:05:42.582Z,24.00
2018-12-05T04:08:10.036Z,18.07
2018-12-05T04:10:37.448Z,30.97
2018-12-05T04:13:04.903Z,32.27
2018-12-05T04:15:32.306Z,20.13
2018-12-05T04:17:59.764Z,22.63
2018-12-05T04:20:37.773Z,18.70
2018-12-05T04:23:05.215Z,20.67
2018-12-05T04:25:37.582Z,20.87
2018-12-05T04:28:15.065Z,22.27
2018-12-05T04:33:14.563Z,18.57
2018-12-05T04:35:41.979Z,19.50
2018-12-05T04:38:09.414Z,19.70
2018-12-05T04:40:36.843Z,18.13
2018-12-05T04:43:04.288Z,23.30
2018-12-05T04:45:31.721Z,20.57
2018-12-05T04:47:59.214Z,21.77
2018-12-05T04:50:26.624Z,21.17
2018-12-05T04:52:54.060Z,30.70
2018-12-05T04:55:21.517Z,23.00
2018-12-05T04:57:49.040Z,28.87
2018-12-05T05:00:16.511Z,28.83
2018-12-05T05:02:43.926Z,35.93
2018-12-05T05:05:11.372Z,37.23
2018-12-05T05:07:38.791Z,22.83
2018-12-05T05:10:06.382Z,48.53
2018-12-05T05:12:37.806Z,26.43
2018-12-05T05:15:10.328Z,30.10
2018-12-05T05:17:37.743Z,34.10
2018-12-05T05:20:11.956Z,32.00
2018-12-05T05:22:42.508Z,23.50
2018-12-05T05:25:09.943Z,33.13
2018-12-05T05:27:46.044Z,24.83
2018-12-05T05:30:13.474Z,24.23
2018-12-05T05:32:40.894Z,25.60
2018-12-05T05:35:08.327Z,24.13
2018-12-05T05:37:35.956Z,26.17
2018-12-05T05:40:04.523Z,21.57
2018-12-05T05:42:31.962Z,23.53
2018-12-05T05:45:00.204Z,27.27
2018-12-05T05:47:27.647Z,27.20
2018-12-05T05:49:55.058Z,25.93
2018-12-05T05:54:57.198Z,43.90
2018-12-05T05:57:28.590Z,42.53
2018-12-05T06:00:00.947Z,39.67
2018-12-05T06:02:28.383Z,27.33
2018-12-05T06:05:10.771Z,22.57
2018-12-05T06:07:41.029Z,23.00
2018-12-05T06:10:18.296Z,25.13
2018-12-05T06:12:45.706Z,24.07
2018-12-05T06:15:13.219Z,26.00
2018-12-05T06:17:40.674Z,25.37
2018-12-05T06:20:22.920Z,23.50
2018-12-05T06:22:50.475Z,22.37
2018-12-05T06:28:06.550Z,25.97
2018-12-05T06:30:34.042Z,25.77
2018-12-05T06:33:01.455Z,25.23
2018-12-05T06:35:28.895Z,26.53
2018-12-05T06:37:56.318Z,29.03
2018-12-05T06:40:23.754Z,28.80
2018-12-05T06:42:51.319Z,29.43
2018-12-05T06:45:18.763Z,35.80
2018-12-05T06:47:46.200Z,29.63
2018-12-05T06:50:13.636Z,27.40
2018-12-05T06:52:57.233Z,26.30
2018-12-05T06:55:24.703Z,29.53
2018-12-05T06:57:53.914Z,32.90
2018-12-05T07:00:24.577Z,33.17
2018-12-05T07:02:55.950Z,27.93
2018-12-05T07:05:23.403Z,29.53
2018-12-05T07:07:50.817Z,28.23
2018-12-05T07:10:18.271Z,26.23
2018-12-05T07:12:45.709Z,29.50
2018-12-05T07:15:13.307Z,29.00
2018-12-05T07:17:40.772Z,29.33
2018-12-05T07:20:08.271Z,32.30
2018-12-05T07:22:36.035Z,26.97
2018-12-05T07:25:12.402Z,27.20
2018-12-05T07:27:44.692Z,28.50
2018-12-05T07:30:12.118Z,30.03
2018-12-05T07:32:39.559Z,25.33
2018-12-05T07:35:07.075Z,24.80
2018-12-05T07:37:41.088Z,28.27
2018-12-05T07:40:12.531Z,23.80
2018-12-05T07:45:23.100Z,25.77
2018-12-05T07:47:50.563Z,25.43
2018-12-05T07:50:21.923Z,22.30
2018-12-05T07:55:37.614Z,26.20
2018-12-05T07:58:05.050Z,22.47
2018-12-05T08:00:32.509Z,19.23
2018-12-05T08:03:01.668Z,21.57
2018-12-05T08:05:29.389Z,21.83
2018-12-05T08:07:56.960Z,23.07
2018-12-05T08:10:30.357Z,20.30
2018-12-05T08:12:57.886Z,19.70
2018-12-05T08:15:25.315Z,20.93
2018-12-05T08:17:57.639Z,21.90
2018-12-05T08:20:25.099Z,21.90
2018-12-05T08:22:52.839Z,21.60
2018-12-05T08:25:25.128Z,22.43
2018-12-05T08:27:52.564Z,21.70
2018-12-05T08:30:19.974Z,21.30
2018-12-05T08:32:47.514Z,18.93
2018-12-05T08:35:14.986Z,19.90
2018-12-05T08:37:44.405Z,20.60
2018-12-05T08:40:11.852Z,19.73
2018-12-05T08:42:39.282Z,19.97
2018-12-05T08:45:06.722Z,17.80
2018-12-05T08:47:34.171Z,17.53
2018-12-05T08:50:03.580Z,17.07
2018-12-05T08:52:31.029Z,18.23
2018-12-05T08:55:01.357Z,16.37
2018-12-05T08:57:28.775Z,16.33
2018-12-05T09:00:00.093Z,19.00
2018-12-05T09:02:31.345Z,20.00
2018-12-05T09:04:59.051Z,14.77
2018-12-05T09:07:33.312Z,19.43
2018-12-05T09:10:04.353Z,18.20
2018-12-05T09:12:31.967Z,16.87
2018-12-05T09:18:16.317Z,19.17
2018-12-05T09:20:44.039Z,17.30
2018-12-05T09:23:11.470Z,19.00
2018-12-05T09:25:39.010Z,17.67
2018-12-05T09:28:06.473Z,19.03
2018-12-05T09:30:36.828Z,16.97
2018-12-05T09:33:04.281Z,17.27
2018-12-05T09:35:31.735Z,18.43
2018-12-05T09:37:59.455Z,26.73
2018-12-05T09:40:27.170Z,22.23
2018-12-05T09:42:54.606Z,18.00
2018-12-05T09:45:22.043Z,18.87
2018-12-05T09:47:53.439Z,21.10
2018-12-05T09:50:20.979Z,22.10
2018-12-05T09:52:48.423Z,22.27
2018-12-05T09:55:16.973Z,24.00
2018-12-05T09:57:44.482Z,26.10
2018-12-05T10:00:11.921Z,20.80
2018-12-05T10:02:44.259Z,21.13
2018-12-05T10:05:11.748Z,22.23
2018-12-05T10:07:39.341Z,20.77
2018-12-05T10:10:07.025Z,22.57
2018-12-05T10:12:34.546Z,18.17
2018-12-05T10:15:02.162Z,22.10
2018-12-05T10:17:34.527Z,22.43
2018-12-05T10:20:01.981Z,21.43
2018-12-05T10:22:29.463Z,25.23
2018-12-05T10:24:56.871Z,18.57
2018-12-05T10:27:24.308Z,20.03
2018-12-05T10:29:55.599Z,18.77
2018-12-05T10:32:23.027Z,19.07
2018-12-05T10:34:50.452Z,18.00
2018-12-05T10:37:21.835Z,20.70
2018-12-05T10:39:49.260Z,21.77
2018-12-05T10:42:16.734Z,18.57
2018-12-05T10:44:44.174Z,22.33
2018-12-05T10:47:11.603Z,19.20
2018-12-05T10:49:39.051Z,15.67
2018-12-05T10:54:45.137Z,20.97
2018-12-05T10:57:12.584Z,19.57
2018-12-05T10:59:40.011Z,21.23
2018-12-05T11:05:18.262Z,19.43
2018-12-05T11:07:52.215Z,18.57
2018-12-05T11:10:25.319Z,18.90
2018-12-05T11:12:58.386Z,17.83
2018-12-05T11:15:31.301Z,19.23
2018-12-05T11:18:04.285Z,22.37
2018-12-05T11:20:37.307Z,19.70
2018-12-05T11:23:11.734Z,20.87
2018-12-05T11:25:39.149Z,18.70
2018-12-05T11:28:06.569Z,21.03
2018-12-05T11:30:34.070Z,20.73
2018-12-05T11:33:03.433Z,19.90
2018-12-05T11:35:30.978Z,20.47
2018-12-05T11:37:58.433Z,19.27
2018-12-05T11:40:25.961Z,17.20
2018-12-05T11:42:53.404Z,23.00
2018-12-05T11:45:20.958Z,18.67
2018-12-05T11:47:49.197Z,18.37
2018-12-05T11:50:16.844Z,20.00
2018-12-05T11:52:44.256Z,21.67
2018-12-05T11:55:11.707Z,20.20
2018-12-05T11:57:39.122Z,20.63
2018-12-05T12:00:07.643Z,23.53
2018-12-05T12:02:35.046Z,21.83
2018-12-05T12:05:09.536Z,21.60
2018-12-05T12:07:41.922Z,23.80
2018-12-05T12:10:09.514Z,21.40
2018-12-05T12:12:42.398Z,19.90
2018-12-05T12:15:09.845Z,20.10
2018-12-05T12:17:37.296Z,17.60
2018-12-05T12:20:05.112Z,24.20
2018-12-05T12:22:32.615Z,23.60
2018-12-05T12:25:00.061Z,21.53
2018-12-05T12:27:27.509Z,26.80
2018-12-05T12:29:54.941Z,23.30
2018-12-05T12:32:22.456Z,22.33
2018-12-05T12:34:49.863Z,22.33
2018-12-05T12:37:17.316Z,25.53
2018-12-05T12:39:48.830Z,24.40
2018-12-05T12:42:16.270Z,19.87
2018-12-05T12:44:43.695Z,23.67
2018-12-05T12:47:11.129Z,22.40
2018-12-05T12:49:38.577Z,24.43
2018-12-05T12:52:06.308Z,24.20
2018-12-05T12:54:33.751Z,25.23
2018-12-05T12:57:01.263Z,22.90
2018-12-05T12:59:30.148Z,25.07
2018-12-05T13:01:57.654Z,23.23
2018-12-05T13:04:31.514Z,24.43
2018-12-05T13:07:01.098Z,21.80
2018-12-05T13:09:28.533Z,24.70
2018-12-05T13:11:56.039Z,26.73
2018-12-05T13:14:23.498Z,23.13
2018-12-05T13:16:50.917Z,23.70
2018-12-05T13:19:18.360Z,23.53
2018-12-05T13:21:46.050Z,24.40
2018-12-05T13:24:14.487Z,22.23
2018-12-05T13:26:41.913Z,22.93
2018-12-05T13:29:09.540Z,24.50
2018-12-05T13:31:36.967Z,23.97
2018-12-05T13:34:07.659Z,23.03
2018-12-05T13:36:35.899Z,20.97
2018-12-05T13:39:05.296Z,22.30
2018-12-05T13:41:32.764Z,22.30
2018-12-05T13:44:01.195Z,23.67
2018-12-05T13:46:32.580Z,24.17
2018-12-05T13:49:00.054Z,26.70
2018-12-05T13:51:35.454Z,22.90
2018-12-05T13:54:03.058Z,25.00
2018-12-05T13:56:30.503Z,24.10
2018-12-05T13:58:57.933Z,25.47
2018-12-05T14:01:25.370Z,25.57
2018-12-05T14:04:05.874Z,24.67
2018-12-05T14:06:33.392Z,27.07
2018-12-05T14:09:00.931Z,23.90
2018-12-05T14:11:34.361Z,30.63
2018-12-05T14:14:01.995Z,29.63
2018-12-05T14:16:34.361Z,27.73
2018-12-05T14:19:01.777Z,27.70
2018-12-05T14:21:29.229Z,27.17
2018-12-05T14:23:56.651Z,25.53
2018-12-05T14:26:24.103Z,25.70
2018-12-05T14:28:51.624Z,24.33
2018-12-05T14:31:19.148Z,24.90
2018-12-05T14:33:46.608Z,25.97
2018-12-05T14:36:14.049Z,22.80
2018-12-05T14:38:41.762Z,24.07
2018-12-05T14:41:09.285Z,24.90
2018-12-05T14:43:36.700Z,25.17
2018-12-05T14:46:04.312Z,25.17
2018-12-05T14:48:34.714Z,22.23
2018-12-05T14:51:02.166Z,23.67
2018-12-05T14:53:30.385Z,21.60
2018-12-05T14:56:07.732Z,21.60
2018-12-05T14:58:35.204Z,22.30
2018-12-05T15:01:02.648Z,23.67
2018-12-05T15:03:30.087Z,24.17
2018-12-05T15:05:57.508Z,23.40
2018-12-05T15:08:25.000Z,19.37
2018-12-05T15:10:52.443Z,20.03
2018-12-05T15:13:19.897Z,20.20
2018-12-05T15:15:47.329Z,21.67
2018-12-05T15:18:18.650Z,22.03
2018-12-05T15:20:46.078Z,21.30
2018-12-05T15:23:13.544Z,21.70
2018-12-05T15:25:40.966Z,22.40
2018-12-05T15:28:08.435Z,22.97
2018-12-05T15:30:36.371Z,20.93
2018-12-05T15:33:03.992Z,18.50
2018-12-05T15:35:31.447Z,23.53
2018-12-05T15:37:58.901Z,19.83
2018-12-05T15:40:26.337Z,22.30
2018-12-05T15:42:53.767Z,23.67
2018-12-05T15:45:21.671Z,22.40
2018-12-05T15:47:49.287Z,23.43
2018-12-05T15:50:18.020Z,24.07
2018-12-05T15:52:45.669Z,21.17
2018-12-05T15:58:19.980Z,19.80
2018-12-05T16:00:47.428Z,23.70
2018-12-05T16:03:14.988Z,20.50
2018-12-05T16:05:42.420Z,19.53
2018-12-05T16:08:09.913Z,24.10
2018-12-05T16:10:37.344Z,19.53
2018-12-05T16:13:05.228Z,19.67
2018-12-05T16:15:32.935Z,22.97
2018-12-05T16:18:00.368Z,21.17
2018-12-05T16:20:27.850Z,25.70
2018-12-05T16:22:55.267Z,23.73
2018-12-05T16:25:22.790Z,20.43
2018-12-05T16:27:54.246Z,21.23
2018-12-05T16:30:37.502Z,22.90
2018-12-05T16:33:04.940Z,19.40
2018-12-05T16:35:32.404Z,19.57
2018-12-05T16:37:59.864Z,20.60
2018-12-05T16:40:31.289Z,21.77
2018-12-05T16:42:58.746Z,24.60
2018-12-05T16:45:26.214Z,25.10
2018-12-05T16:47:53.668Z,21.50
2018-12-05T16:50:21.142Z,22.33
2018-12-05T16:52:48.630Z,21.40
2018-12-05T16:55:16.059Z,23.43
2018-12-05T16:57:43.520Z,19.27
2018-12-05T17:03:14.023Z,20.60
2018-12-05T17:05:41.460Z,21.50
2018-12-05T17:08:08.966Z,22.43
2018-12-05T17:10:36.392Z,22.23
2018-12-05T17:13:04.135Z,19.43
2018-12-05T17:15:31.554Z,20.20
2018-12-05T17:17:59.180Z,20.13
2018-12-05T17:20:31.602Z,18.53
2018-12-05T17:22:59.032Z,18.60
2018-12-05T17:25:26.590Z,20.73
2018-12-05T17:27:58.145Z,18.87
2018-12-05T17:30:25.575Z,20.57
2018-12-05T17:32:53.228Z,19.50
2018-12-05T17:35:20.683Z,18.93
2018-12-05T17:37:48.428Z,18.63
2018-12-05T17:40:15.995Z,24.23
2018-12-05T17:42:43.597Z,21.17
2018-12-05T17:45:11.095Z,18.80
2018-12-05T17:47:38.691Z,22.87
2018-12-05T17:50:06.341Z,19.07
2018-12-05T17:52:33.757Z,19.57
2018-12-05T17:55:01.208Z,19.53
2018-12-05T17:57:28.646Z,21.37
2018-12-05T17:59:56.112Z,20.33
2018-12-05T18:02:23.554Z,22.60
2018-12-05T18:04:51.176Z,20.50
2018-12-05T18:07:18.695Z,18.27
2018-12-05T18:09:46.348Z,21.13
2018-12-05T18:12:13.772Z,18.27
2018-12-05T18:14:41.201Z,17.90
2018-12-05T18:17:15.392Z,16.20
2018-12-05T18:22:39.704Z,24.17
2018-12-05T18:25:13.204Z,21.43
2018-12-05T18:27:40.719Z,19.50
2018-12-05T18:30:08.533Z,21.27
2018-12-05T18:32:36.081Z,24.40
2018-12-05T18:35:04.080Z,20.40
2018-12-05T18:37:35.531Z,18.17
2018-12-05T18:40:03.322Z,16.80
2018-12-05T18:42:30.760Z,16.63
2018-12-05T18:45:00.311Z,17.87
2018-12-05T18:47:27.874Z,19.37
2018-12-05T18:49:55.314Z,19.20
2018-12-05T18:52:22.788Z,16.73
2018-12-05T18:54:53.031Z,21.00
2018-12-05T18:57:20.508Z,18.60
2018-12-05T18:59:49.929Z,18.97
2018-12-05T19:02:17.374Z,18.30
2018-12-05T19:04:44.818Z,21.47
2018-12-05T19:07:12.329Z,16.57
2018-12-05T19:09:39.862Z,17.93
2018-12-05T19:12:12.211Z,17.80
2018-12-05T19:14:46.541Z,18.13
2018-12-05T19:17:18.649Z,18.27
2018-12-05T19:19:46.079Z,20.20
2018-12-05T19:22:13.519Z,17.53
2018-12-05T19:24:40.972Z,18.27
2018-12-05T19:27:08.409Z,17.37
2018-12-05T19:29:35.887Z,18.80
2018-12-05T19:32:03.348Z,16.27
2018-12-05T19:34:32.608Z,17.90
2018-12-05T19:37:00.133Z,17.73
2018-12-05T19:39:27.598Z,18.40
2018-12-05T19:41:55.043Z,16.67
2018-12-05T19:44:22.970Z,17.27
2018-12-05T19:46:57.490Z,19.13
2018-12-05T19:49:24.953Z,16.57
2018-12-05T19:51:52.405Z,17.30
2018-12-05T19:54:20.441Z,16.20
2018-12-05T19:56:47.908Z,15.50
2018-12-05T19:59:15.364Z,15.33
2018-12-05T20:01:42.876Z,15.90
2018-12-05T20:04:12.350Z,17.17
2018-12-05T20:06:39.836Z,18.23
2018-12-05T20:09:07.748Z,18.63
2018-12-05T20:11:35.191Z,14.87
2018-12-05T20:14:09.570Z,13.93
2018-12-05T20:16:37.060Z,15.50
2018-12-05T20:19:04.609Z,17.57
2018-12-05T20:21:32.063Z,15.67
2018-12-05T20:23:59.487Z,15.43
2018-12-05T20:26:27.047Z,17.97
2018-12-05T20:28:59.469Z,17.50
2018-12-05T20:31:26.910Z,17.13
2018-12-05T20:33:54.590Z,15.30
2018-12-05T20:36:22.030Z,15.40
2018-12-05T20:38:49.509Z,13.80
2018-12-05T20:41:33.216Z,14.20
2018-12-05T20:43:59.038Z,15.53
2018-12-05T20:46:26.493Z,14.00
2018-12-05T20:48:53.930Z,18.07
2018-12-05T20:51:21.502Z,15.63
2018-12-05T20:53:48.953Z,16.10
2018-12-05T20:56:16.540Z,14.87
2018-12-05T20:58:43.983Z,16.87
2018-12-05T21:01:14.411Z,15.87
2018-12-05T21:03:46.801Z,14.97
2018-12-05T21:08:57.384Z,16.87
2018-12-05T21:11:24.971Z,14.97
2018-12-05T21:13:52.488Z,16.03
2018-12-05T21:16:19.956Z,15.93
2018-12-05T21:18:47.434Z,17.00
2018-12-05T21:21:14.870Z,15.73
2018-12-05T21:23:42.319Z,15.97
2018-12-05T21:26:09.761Z,15.47
2018-12-05T21:28:37.468Z,17.63
2018-12-05T21:31:05.127Z,17.67
2018-12-05T21:33:36.844Z,16.50
2018-12-05T21:36:07.443Z,15.57
2018-12-05T21:38:34.882Z,17.87
2018-12-05T21:41:02.343Z,16.73
2018-12-05T21:43:37.298Z,14.70
2018-12-05T21:46:08.559Z,15.40
2018-12-05T21:48:40.047Z,14.77
2018-12-05T21:51:12.247Z,14.73
2018-12-05T21:53:39.709Z,15.23
2018-12-05T21:56:07.267Z,16.87
2018-12-05T21:58:34.702Z,14.17
2018-12-05T22:01:09.579Z,14.67
2018-12-05T22:03:37.026Z,16.83
2018-12-05T22:06:04.469Z,15.03
2018-12-05T22:08:31.896Z,15.53
2018-12-05T22:10:59.383Z,14.73
2018-12-05T22:13:27.062Z,16.63
2018-12-05T22:15:54.499Z,14.27
2018-12-05T22:18:25.878Z,17.10
2018-12-05T22:20:59.134Z,14.50
2018-12-05T22:26:09.777Z,15.87
2018-12-05T22:28:37.223Z,16.20
2018-12-05T22:34:33.544Z,15.27
2018-12-05T22:37:01.945Z,16.47
2018-12-05T22:39:29.439Z,15.27
2018-12-05T22:41:56.896Z,15.27
2018-12-05T22:44:27.167Z,16.50
2018-12-05T22:46:54.706Z,18.83
2018-12-05T22:49:22.119Z,15.43
2018-12-05T22:54:43.717Z,17.27
2018-12-05T22:57:13.338Z,17.23
2018-12-05T22:59:41.290Z,17.27
2018-12-05T23:02:11.712Z,14.13
2018-12-05T23:04:39.231Z,14.37
2018-12-05T23:07:06.649Z,16.97
2018-12-05T23:09:34.130Z,16.93
2018-12-05T23:12:01.557Z,15.80
2018-12-05T23:14:28.998Z,15.53
2018-12-05T23:16:56.591Z,19.30
2018-12-05T23:19:24.132Z,19.53
2018-12-05T23:21:51.578Z,15.67
2018-12-05T23:24:19.090Z,15.20
2018-12-05T23:26:46.539Z,15.80
2018-12-05T23:29:13.976Z,16.77
2018-12-05T23:31:41.422Z,16.10
2018-12-05T23:34:15.758Z,14.87
2018-12-05T23:36:43.167Z,15.90
2018-12-05T23:39:10.596Z,14.40
2018-12-05T23:41:38.242Z,14.80
2018-12-05T23:44:09.636Z,14.90
2018-12-05T23:46:42.191Z,16.27
2018-12-05T23:49:09.639Z,16.70
2018-12-05T23:51:37.072Z,14.97
2018-12-05T23:54:10.399Z,16.83
2018-12-05T23:56:41.018Z,15.43
2018-12-05T23:59:08.474Z,14.33
